Lee Center, Illinois
Current Conditions -  °F | °C
As of 11:55 PM on Monday 26 Jan 2015 (Local Time) from KRPJ Reporting Station
Light Snow Light Snow  
Wind Chill: 27°   Ceiling: 300
Heat Index: 27°   Visibility: 1.7mi
Dew Point: 27°   Wind: 0mph
Humidity: 99%   Direction: NA
Pressure: 29.91"   Gusts: NA
Location:  41.75°N, 89.28°W
Report Text: KRPJ 270555Z AUTO 00000KT 1 3/4SM -SN OVC003 M03/M03 A2991 RMK AO2 T10261027 11026 21040 410261113
Loading
Personal Weather Stations






























Interactive Weather Map New forecast layout! Learn more

10-Day Weather Forecast

Advertisements
Track Severe Weather on mobile